createdAt,value
2018-05-06T00:00:52.837Z,18.57
2018-05-06T00:01:52.862Z,18.53
2018-05-06T00:02:52.961Z,18.46
2018-05-06T00:03:52.921Z,18.47
2018-05-06T00:04:52.823Z,18.49
2018-05-06T00:05:53.282Z,18.52
2018-05-06T00:06:52.825Z,18.57
2018-05-06T00:07:52.923Z,18.57
2018-05-06T00:08:52.837Z,18.57
2018-05-06T00:09:52.867Z,18.56
2018-05-06T00:10:52.867Z,18.53
2018-05-06T00:11:52.814Z,18.47
2018-05-06T00:12:52.829Z,18.46
2018-05-06T00:13:52.823Z,18.42
2018-05-06T00:14:52.878Z,18.43
2018-05-06T00:15:52.854Z,18.43
2018-05-06T00:16:52.823Z,18.4
2018-05-06T00:17:52.891Z,18.37
2018-05-06T00:18:52.826Z,18.39
2018-05-06T00:19:52.831Z,18.36
2018-05-06T00:20:52.808Z,18.37
2018-05-06T00:21:52.813Z,18.39
2018-05-06T00:22:52.795Z,18.37
2018-05-06T00:23:52.820Z,18.39
2018-05-06T00:24:52.827Z,18.42
2018-05-06T00:25:52.840Z,18.35
2018-05-06T00:26:52.823Z,18.35
2018-05-06T00:27:52.827Z,18.33
2018-05-06T00:28:52.841Z,18.35
2018-05-06T00:29:52.809Z,18.39
2018-05-06T00:30:52.805Z,18.27
2018-05-06T00:31:52.826Z,18.22
2018-05-06T00:32:57.743Z,18.23
2018-05-06T00:33:52.803Z,18.23
2018-05-06T00:34:52.818Z,18.22
2018-05-06T00:35:52.805Z,18.2
2018-05-06T00:36:52.830Z,18.25
2018-05-06T00:37:52.823Z,18.22
2018-05-06T00:38:52.836Z,18.25
2018-05-06T00:39:52.811Z,18.22
2018-05-06T00:40:52.851Z,18.2
2018-05-06T00:41:52.805Z,18.23
2018-05-06T00:42:52.807Z,18.26
2018-05-06T00:43:52.800Z,18.11
2018-05-06T00:44:52.902Z,18.11
2018-05-06T00:45:52.830Z,18.15
2018-05-06T00:46:52.794Z,18.15
2018-05-06T00:47:52.957Z,18.08
2018-05-06T00:48:53.521Z,18.05
2018-05-06T00:49:53.675Z,18.08
2018-05-06T00:50:53.571Z,18.04
2018-05-06T00:51:53.541Z,18.06
2018-05-06T00:52:53.571Z,18.09
2018-05-06T00:53:53.624Z,18.13
2018-05-06T00:54:53.684Z,18.11
2018-05-06T00:55:53.555Z,18.09
2018-05-06T00:56:53.489Z,18.04
2018-05-06T00:57:53.342Z,18.08
2018-05-06T00:58:53.524Z,18.08
2018-05-06T00:59:53.510Z,18.09
2018-05-06T01:00:53.516Z,18.08
2018-05-06T01:01:53.587Z,18.06
2018-05-06T01:02:53.538Z,18.04
2018-05-06T01:03:53.595Z,18.05
2018-05-06T01:04:53.600Z,18.04
2018-05-06T01:05:53.604Z,17.97
2018-05-06T01:06:53.536Z,17.97
2018-05-06T01:07:53.616Z,17.97
2018-05-06T01:08:53.612Z,17.95
2018-05-06T01:09:53.632Z,17.97
2018-05-06T01:10:53.535Z,17.95
2018-05-06T01:11:53.506Z,17.92
2018-05-06T01:12:53.546Z,17.91
2018-05-06T01:13:53.817Z,17.98
2018-05-06T01:14:53.566Z,17.95
2018-05-06T01:15:53.572Z,17.98
2018-05-06T01:16:53.597Z,17.95
2018-05-06T01:17:53.575Z,17.92
2018-05-06T01:18:53.678Z,17.85
2018-05-06T01:19:53.547Z,17.84
2018-05-06T01:20:53.782Z,17.78
2018-05-06T01:21:53.513Z,17.8
2018-05-06T01:22:53.516Z,17.84
2018-05-06T01:23:53.558Z,17.85
2018-05-06T01:24:53.637Z,17.85
2018-05-06T01:25:53.510Z,17.63
2018-05-06T01:26:53.542Z,17.56
2018-05-06T01:27:53.548Z,17.5
2018-05-06T01:28:53.506Z,17.57
2018-05-06T01:29:53.565Z,17.6
2018-05-06T01:30:53.539Z,17.61
2018-05-06T01:31:53.540Z,17.64
2018-05-06T01:32:53.351Z,17.66
2018-05-06T01:33:53.592Z,17.63
2018-05-06T01:34:53.609Z,17.39
2018-05-06T01:35:53.513Z,17.43
2018-05-06T01:36:53.525Z,17.43
2018-05-06T01:37:53.591Z,17.46
2018-05-06T01:38:53.502Z,17.47
2018-05-06T01:39:53.534Z,17.43
2018-05-06T01:40:53.568Z,17.44
2018-05-06T01:41:53.505Z,17.44
2018-05-06T01:42:53.529Z,17.46
2018-05-06T01:43:53.501Z,17.47
2018-05-06T01:44:53.569Z,17.47
2018-05-06T01:45:53.485Z,17.46
2018-05-06T01:46:53.491Z,17.49
2018-05-06T01:47:53.508Z,17.47
2018-05-06T01:48:52.803Z,17.46
2018-05-06T01:49:52.858Z,17.46
2018-05-06T01:50:54.395Z,17.47
2018-05-06T01:51:52.955Z,17.49
2018-05-06T01:52:52.820Z,17.47
2018-05-06T01:53:52.779Z,17.5
2018-05-06T01:54:52.906Z,17.46
2018-05-06T01:55:52.819Z,17.43
2018-05-06T01:56:52.796Z,17.47
2018-05-06T01:57:52.877Z,17.46
2018-05-06T01:58:52.779Z,17.47
2018-05-06T01:59:52.770Z,17.49
2018-05-06T02:00:54.077Z,17.49
2018-05-06T02:01:52.843Z,17.52
2018-05-06T02:02:52.810Z,17.52
2018-05-06T02:03:52.817Z,17.49
2018-05-06T02:04:52.896Z,17.49
2018-05-06T02:05:52.814Z,17.49
2018-05-06T02:06:52.787Z,17.46
2018-05-06T02:07:52.811Z,17.43
2018-05-06T02:08:52.815Z,17.39
2018-05-06T02:09:52.810Z,17.43
2018-05-06T02:10:52.820Z,17.42
2018-05-06T02:11:52.823Z,17.42
2018-05-06T02:12:52.842Z,17.37
2018-05-06T02:13:52.825Z,17.37
2018-05-06T02:14:52.891Z,17.35
2018-05-06T02:15:52.841Z,17.36
2018-05-06T02:16:52.797Z,17.36
2018-05-06T02:17:52.794Z,17.39
2018-05-06T02:18:52.819Z,17.37
2018-05-06T02:19:52.941Z,17.3
2018-05-06T02:20:52.822Z,17.29
2018-05-06T02:21:52.838Z,17.3
2018-05-06T02:22:52.804Z,17.29
2018-05-06T02:23:52.866Z,17.3
2018-05-06T02:24:52.813Z,17.3
2018-05-06T02:25:52.908Z,17.3
2018-05-06T02:26:52.796Z,17.29
2018-05-06T02:27:52.984Z,17.29
2018-05-06T02:28:52.810Z,17.27
2018-05-06T02:29:52.808Z,17.27
2018-05-06T02:30:52.831Z,17.3
2018-05-06T02:31:52.949Z,17.27
2018-05-06T02:32:52.812Z,17.26
2018-05-06T02:33:52.817Z,17.3
2018-05-06T02:34:52.965Z,17.3
2018-05-06T02:35:52.800Z,17.26
2018-05-06T02:36:52.798Z,17.26
2018-05-06T02:37:52.848Z,17.27
2018-05-06T02:38:52.792Z,17.3
2018-05-06T02:39:52.819Z,17.3
2018-05-06T02:40:52.804Z,17.29
2018-05-06T02:41:52.820Z,17.26
2018-05-06T02:42:52.810Z,17.26
2018-05-06T02:43:52.833Z,17.26
2018-05-06T02:44:52.823Z,17.27
2018-05-06T02:45:52.797Z,17.23
2018-05-06T02:46:52.815Z,17.23
2018-05-06T02:47:52.850Z,17.21
2018-05-06T02:48:52.835Z,17.22
2018-05-06T02:49:53.895Z,17.23
2018-05-06T02:50:52.802Z,17.22
2018-05-06T02:51:52.807Z,17.21
2018-05-06T02:52:52.815Z,17.21
2018-05-06T02:53:52.813Z,17.23
2018-05-06T02:54:52.841Z,17.22
2018-05-06T02:55:52.801Z,17.18
2018-05-06T02:56:52.846Z,17.16
2018-05-06T02:57:52.844Z,17.15
2018-05-06T02:58:52.836Z,17.15
2018-05-06T02:59:52.921Z,17.15
2018-05-06T03:00:52.829Z,17.18
2018-05-06T03:01:52.845Z,17.12
2018-05-06T03:02:52.831Z,17.12
2018-05-06T03:03:52.923Z,17.14
2018-05-06T03:04:52.939Z,17.12
2018-05-06T03:05:52.855Z,17.14
2018-05-06T03:06:52.836Z,17.12
2018-05-06T03:07:52.830Z,17.11
2018-05-06T03:08:52.829Z,17.14
2018-05-06T03:09:52.841Z,17.15
2018-05-06T03:10:52.849Z,17.14
2018-05-06T03:11:52.879Z,17.11
2018-05-06T03:12:52.860Z,17.12
2018-05-06T03:13:52.934Z,17.08
2018-05-06T03:14:52.907Z,17.11
2018-05-06T03:15:52.847Z,17.08
2018-05-06T03:16:52.846Z,17.09
2018-05-06T03:17:52.892Z,17.08
2018-05-06T03:18:52.931Z,17.07
2018-05-06T03:19:52.872Z,17.04
2018-05-06T03:20:52.889Z,17.05
2018-05-06T03:21:52.853Z,17.04
2018-05-06T03:22:52.822Z,17.01
2018-05-06T03:23:52.834Z,17.01
2018-05-06T03:24:52.915Z,16.99
2018-05-06T03:25:52.936Z,16.99
2018-05-06T03:26:52.907Z,16.99
2018-05-06T03:27:52.858Z,16.97
2018-05-06T03:28:52.941Z,16.99
2018-05-06T03:29:52.873Z,16.94
2018-05-06T03:30:52.850Z,16.97
2018-05-06T03:31:52.882Z,16.94
2018-05-06T03:32:52.866Z,16.92
2018-05-06T03:33:52.899Z,16.91
2018-05-06T03:34:52.875Z,16.91
2018-05-06T03:35:52.845Z,16.9
2018-05-06T03:36:52.864Z,16.9
2018-05-06T03:37:52.896Z,16.87
2018-05-06T03:38:52.843Z,16.86
2018-05-06T03:39:52.910Z,16.86
2018-05-06T03:40:52.950Z,16.84
2018-05-06T03:41:52.850Z,16.83
2018-05-06T03:42:52.850Z,16.83
2018-05-06T03:43:52.865Z,16.86
2018-05-06T03:44:52.880Z,16.83
2018-05-06T03:45:52.856Z,16.83
2018-05-06T03:46:52.874Z,16.83
2018-05-06T03:47:52.872Z,16.8
2018-05-06T03:48:52.845Z,16.8
2018-05-06T03:49:52.907Z,16.81
2018-05-06T03:50:52.877Z,16.83
2018-05-06T03:51:52.857Z,16.77
2018-05-06T03:52:52.941Z,16.73
2018-05-06T03:53:52.882Z,16.73
2018-05-06T03:54:52.857Z,16.74
2018-05-06T03:55:52.873Z,16.73
2018-05-06T03:56:52.830Z,16.73
2018-05-06T03:57:52.886Z,16.73
2018-05-06T03:58:52.838Z,16.73
2018-05-06T03:59:52.871Z,16.71
2018-05-06T04:00:52.879Z,16.7
2018-05-06T04:01:52.857Z,16.7
2018-05-06T04:02:52.850Z,16.67
2018-05-06T04:03:52.908Z,16.68
2018-05-06T04:04:52.875Z,16.66
2018-05-06T04:05:53.289Z,16.68
2018-05-06T04:06:52.892Z,16.67
2018-05-06T04:07:52.928Z,16.68
2018-05-06T04:08:52.880Z,16.67
2018-05-06T04:09:52.856Z,16.7
2018-05-06T04:10:53.016Z,16.66
2018-05-06T04:11:52.977Z,16.66
2018-05-06T04:12:52.870Z,16.63
2018-05-06T04:13:52.919Z,16.63
2018-05-06T04:14:52.868Z,16.59
2018-05-06T04:15:52.958Z,16.6
2018-05-06T04:16:52.837Z,16.6
2018-05-06T04:17:52.907Z,16.59
2018-05-06T04:18:52.905Z,16.59
2018-05-06T04:19:52.846Z,16.57
2018-05-06T04:20:52.908Z,16.53
2018-05-06T04:21:52.841Z,16.53
2018-05-06T04:22:52.867Z,16.53
2018-05-06T04:23:52.918Z,16.5
2018-05-06T04:24:52.923Z,16.54
2018-05-06T04:25:52.911Z,16.54
2018-05-06T04:26:53.078Z,16.5
2018-05-06T04:27:52.925Z,16.49
2018-05-06T04:28:52.862Z,16.46
2018-05-06T04:29:52.870Z,16.46
2018-05-06T04:30:52.930Z,16.49
2018-05-06T04:31:52.855Z,16.47
2018-05-06T04:32:53.058Z,16.43
2018-05-06T04:33:52.930Z,16.4
2018-05-06T04:34:52.892Z,16.39
2018-05-06T04:35:52.898Z,16.32
2018-05-06T04:36:52.920Z,16.32
2018-05-06T04:37:52.930Z,16.31
2018-05-06T04:38:52.861Z,16.33
2018-05-06T04:39:52.878Z,16.29
2018-05-06T04:40:52.914Z,16.32
2018-05-06T04:41:52.895Z,16.33
2018-05-06T04:42:52.885Z,16.35
2018-05-06T04:43:52.901Z,16.33
2018-05-06T04:44:52.981Z,16.35
2018-05-06T04:45:52.925Z,16.33
2018-05-06T04:46:52.908Z,16.31
2018-05-06T04:47:52.901Z,16.33
2018-05-06T04:48:52.885Z,16.29
2018-05-06T04:49:52.937Z,16.28
2018-05-06T04:50:53.095Z,16.33
2018-05-06T04:51:52.861Z,16.32
2018-05-06T04:52:52.898Z,16.31
2018-05-06T04:53:52.880Z,16.32
2018-05-06T04:54:52.877Z,16.35
2018-05-06T04:55:52.906Z,16.32
2018-05-06T04:56:52.880Z,16.32
2018-05-06T04:57:52.878Z,16.35
2018-05-06T04:58:52.869Z,16.35
2018-05-06T04:59:52.883Z,16.36
2018-05-06T05:00:52.888Z,16.37
2018-05-06T05:01:52.880Z,16.28
2018-05-06T05:02:52.874Z,16.26
2018-05-06T05:03:52.895Z,16.28
2018-05-06T05:04:52.866Z,16.25
2018-05-06T05:05:52.911Z,16.28
2018-05-06T05:06:52.887Z,16.31
2018-05-06T05:07:52.881Z,16.26
2018-05-06T05:08:52.886Z,16.24
2018-05-06T05:09:52.925Z,16.25
2018-05-06T05:10:52.901Z,16.29
2018-05-06T05:11:52.938Z,16.32
2018-05-06T05:12:52.906Z,16.32
2018-05-06T05:13:52.917Z,16.24
2018-05-06T05:14:52.882Z,16.26
2018-05-06T05:15:52.932Z,16.32
2018-05-06T05:16:53.004Z,16.35
2018-05-06T05:17:52.978Z,16.36
2018-05-06T05:18:52.918Z,16.4
2018-05-06T05:19:52.897Z,16.42
2018-05-06T05:20:53.127Z,16.42
2018-05-06T05:21:52.945Z,16.43
2018-05-06T05:22:52.885Z,16.25
2018-05-06T05:23:52.925Z,16.26
2018-05-06T05:24:53.034Z,16.19
2018-05-06T05:25:52.962Z,16.25
2018-05-06T05:26:52.998Z,16.31
2018-05-06T05:27:52.936Z,16.21
2018-05-06T05:28:52.914Z,16.22
2018-05-06T05:29:52.910Z,16.28
2018-05-06T05:30:52.961Z,16.29
2018-05-06T05:31:52.920Z,16.33
2018-05-06T05:32:53.049Z,16.36
2018-05-06T05:33:52.903Z,16.36
2018-05-06T05:34:52.926Z,16.33
2018-05-06T05:35:52.885Z,16.35
2018-05-06T05:36:52.907Z,16.37
2018-05-06T05:37:52.912Z,16.36
2018-05-06T05:38:52.945Z,16.4
2018-05-06T05:39:52.888Z,16.46
2018-05-06T05:40:52.893Z,16.49
2018-05-06T05:41:52.934Z,16.5
2018-05-06T05:42:53.089Z,16.52
2018-05-06T05:43:52.889Z,16.54
2018-05-06T05:44:52.886Z,16.57
2018-05-06T05:45:52.916Z,16.56
2018-05-06T05:46:53.095Z,16.57
2018-05-06T05:47:53.210Z,16.6
2018-05-06T05:48:52.948Z,16.59
2018-05-06T05:49:52.921Z,16.62
2018-05-06T05:50:52.890Z,16.66
2018-05-06T05:51:52.935Z,16.67
2018-05-06T05:52:52.909Z,16.68
2018-05-06T05:53:52.931Z,16.71
2018-05-06T05:54:52.905Z,16.7
2018-05-06T05:55:52.927Z,16.71
2018-05-06T05:56:52.913Z,16.75
2018-05-06T05:57:52.948Z,16.75
2018-05-06T05:58:52.987Z,16.75
2018-05-06T05:59:52.900Z,16.68
2018-05-06T06:00:52.896Z,16.64
2018-05-06T06:01:52.911Z,16.67
2018-05-06T06:02:52.916Z,16.57
2018-05-06T06:03:52.895Z,16.46
2018-05-06T06:04:52.929Z,16.54
2018-05-06T06:05:52.926Z,16.5
2018-05-06T06:06:52.952Z,16.52
2018-05-06T06:07:52.913Z,16.57
2018-05-06T06:08:52.947Z,16.6
2018-05-06T06:09:52.920Z,16.63
2018-05-06T06:10:52.903Z,16.6
2018-05-06T06:11:52.956Z,16.6
2018-05-06T06:12:52.901Z,16.59
2018-05-06T06:13:52.914Z,16.52
2018-05-06T06:14:52.904Z,16.5
2018-05-06T06:15:53.023Z,16.52
2018-05-06T06:16:52.927Z,16.59
2018-05-06T06:17:52.923Z,16.62
2018-05-06T06:18:52.963Z,16.66
2018-05-06T06:19:52.935Z,16.64
2018-05-06T06:20:52.943Z,16.62
2018-05-06T06:21:52.949Z,16.6
2018-05-06T06:22:52.915Z,16.54
2018-05-06T06:23:52.981Z,16.54
2018-05-06T06:24:53.061Z,16.5
2018-05-06T06:25:52.941Z,16.52
2018-05-06T06:26:52.960Z,16.54
2018-05-06T06:27:52.945Z,16.54
2018-05-06T06:28:53.040Z,16.6
2018-05-06T06:29:52.927Z,16.66
2018-05-06T06:30:52.975Z,16.73
2018-05-06T06:31:52.977Z,16.75
2018-05-06T06:32:55.511Z,16.78
2018-05-06T06:33:53.100Z,16.8
2018-05-06T06:34:52.966Z,16.8
2018-05-06T06:35:53.049Z,16.78
2018-05-06T06:36:52.936Z,16.8
2018-05-06T06:37:52.923Z,16.77
2018-05-06T06:38:53.097Z,16.83
2018-05-06T06:39:53.733Z,16.83
2018-05-06T06:40:52.938Z,16.87
2018-05-06T06:41:52.949Z,16.87
2018-05-06T06:42:53.470Z,16.91
2018-05-06T06:43:52.989Z,16.95
2018-05-06T06:44:52.952Z,17.02
2018-05-06T06:45:52.925Z,17.02
2018-05-06T06:46:52.922Z,17.07
2018-05-06T06:47:53.062Z,17.12
2018-05-06T06:48:53.409Z,17.18
2018-05-06T06:49:52.937Z,17.22
2018-05-06T06:50:52.933Z,17.25
2018-05-06T06:51:53.020Z,17.21
2018-05-06T06:52:52.954Z,17.26
2018-05-06T06:53:52.923Z,17.3
2018-05-06T06:54:52.975Z,17.33
2018-05-06T06:55:52.963Z,17.26
2018-05-06T06:56:52.957Z,17.27
2018-05-06T06:57:52.938Z,17.32
2018-05-06T06:58:52.983Z,17.32
2018-05-06T06:59:52.935Z,17.33
2018-05-06T07:00:52.946Z,17.36
2018-05-06T07:01:52.962Z,17.37
2018-05-06T07:02:52.949Z,17.4
2018-05-06T07:03:52.965Z,17.37
2018-05-06T07:04:52.971Z,17.43
2018-05-06T07:05:53.129Z,17.44
2018-05-06T07:06:52.947Z,17.46
2018-05-06T07:07:52.973Z,17.52
2018-05-06T07:08:52.971Z,17.54
2018-05-06T07:09:53.041Z,17.57
2018-05-06T07:10:52.939Z,17.56
2018-05-06T07:11:52.982Z,17.6
2018-05-06T07:12:52.961Z,17.7
2018-05-06T07:13:53.081Z,17.73
2018-05-06T07:14:53.064Z,17.73
2018-05-06T07:15:52.961Z,17.76
2018-05-06T07:16:52.976Z,17.76
2018-05-06T07:17:52.967Z,17.67
2018-05-06T07:18:52.939Z,17.69
2018-05-06T07:19:52.963Z,17.71
2018-05-06T07:20:52.986Z,17.74
2018-05-06T07:21:52.979Z,17.78
2018-05-06T07:22:53.133Z,17.85
2018-05-06T07:23:52.955Z,17.89
2018-05-06T07:24:52.987Z,17.91
2018-05-06T07:25:53.043Z,17.95
2018-05-06T07:26:53.046Z,18.01
2018-05-06T07:27:52.945Z,18.05
2018-05-06T07:28:52.977Z,18.09
2018-05-06T07:29:53.186Z,18.12
2018-05-06T07:30:53.008Z,18.17
2018-05-06T07:31:52.987Z,18.16
2018-05-06T07:32:52.985Z,18.15
2018-05-06T07:33:52.978Z,18.17
2018-05-06T07:34:52.940Z,18.19
2018-05-06T07:35:53.210Z,18.19
2018-05-06T07:36:52.963Z,18.19
2018-05-06T07:37:52.931Z,18.22
2018-05-06T07:38:52.946Z,18.27
2018-05-06T07:39:52.975Z,18.27
2018-05-06T07:40:52.988Z,18.32
2018-05-06T07:41:52.959Z,18.32
2018-05-06T07:42:52.997Z,18.35
2018-05-06T07:43:53.037Z,18.35
2018-05-06T07:44:53.007Z,18.35
2018-05-06T07:45:52.968Z,18.32
2018-05-06T07:46:52.971Z,18.35
2018-05-06T07:47:52.978Z,18.36
2018-05-06T07:48:52.991Z,18.39
2018-05-06T07:49:53.058Z,18.43
2018-05-06T07:50:52.994Z,18.46
2018-05-06T07:51:53.078Z,18.46
2018-05-06T07:52:52.945Z,18.56
2018-05-06T07:53:52.983Z,18.61
2018-05-06T07:54:52.944Z,18.63
2018-05-06T07:55:52.944Z,18.68
2018-05-06T07:56:52.975Z,18.74
2018-05-06T07:57:52.982Z,18.77
2018-05-06T07:58:53.106Z,18.8
2018-05-06T07:59:52.980Z,18.81
2018-05-06T08:00:52.989Z,18.84
2018-05-06T08:01:52.965Z,18.74
2018-05-06T08:02:52.950Z,18.64
2018-05-06T08:03:52.993Z,18.56
2018-05-06T08:04:53.307Z,18.53
2018-05-06T08:05:52.994Z,18.59
2018-05-06T08:06:52.969Z,18.61
2018-05-06T08:07:52.953Z,18.61
2018-05-06T08:08:52.965Z,18.68
2018-05-06T08:09:52.990Z,18.72
2018-05-06T08:10:53.269Z,18.75
2018-05-06T08:11:52.952Z,18.89
2018-05-06T08:12:52.962Z,18.95
2018-05-06T08:13:52.990Z,18.95
2018-05-06T08:14:52.988Z,18.97
2018-05-06T08:15:52.964Z,18.77
2018-05-06T08:16:52.959Z,18.77
2018-05-06T08:17:52.982Z,18.7
2018-05-06T08:18:52.981Z,18.63
2018-05-06T08:19:52.976Z,18.7
2018-05-06T08:20:53.040Z,18.78
2018-05-06T08:21:53.186Z,18.82
2018-05-06T08:22:53.012Z,18.91
2018-05-06T08:23:52.963Z,18.95
2018-05-06T08:24:52.982Z,19.05
2018-05-06T08:25:53.021Z,19.09
2018-05-06T08:26:52.959Z,19.17
2018-05-06T08:27:53.012Z,19.21
2018-05-06T08:28:53.049Z,19.23
2018-05-06T08:29:53.080Z,19.29
2018-05-06T08:30:52.986Z,19.36
2018-05-06T08:31:52.974Z,19.37
2018-05-06T08:32:52.976Z,19.46
2018-05-06T08:33:52.999Z,19.5
2018-05-06T08:34:52.985Z,19.51
2018-05-06T08:35:52.966Z,19.53
2018-05-06T08:36:53.013Z,19.65
2018-05-06T08:37:52.989Z,19.65
2018-05-06T08:38:52.983Z,19.72
2018-05-06T08:39:53.004Z,19.61
2018-05-06T08:40:53.000Z,19.7
2018-05-06T08:41:55.371Z,19.72
2018-05-06T08:42:52.985Z,19.74
2018-05-06T08:43:53.036Z,19.81
2018-05-06T08:44:54.926Z,19.88
2018-05-06T08:45:53.266Z,19.92
2018-05-06T08:46:52.980Z,19.96
2018-05-06T08:47:54.491Z,19.96
2018-05-06T08:48:55.306Z,19.96
2018-05-06T08:49:52.997Z,19.98
2018-05-06T08:50:53.158Z,20.02
2018-05-06T08:51:53.012Z,20.02
2018-05-06T08:52:54.551Z,20.04
2018-05-06T08:53:53.055Z,20.04
2018-05-06T08:54:57.783Z,19.91
2018-05-06T08:55:53.005Z,19.88
2018-05-06T08:56:53.084Z,19.96
2018-05-06T08:57:53.053Z,20.02
2018-05-06T08:58:53.005Z,20.08
2018-05-06T08:59:53.219Z,20.16
2018-05-06T09:00:53.094Z,20.24
2018-05-06T09:01:53.150Z,20.33
2018-05-06T09:02:53.020Z,20.41
2018-05-06T09:03:53.095Z,20.41
2018-05-06T09:04:53.904Z,20.39
2018-05-06T09:05:53.031Z,20.36
2018-05-06T09:06:54.655Z,20.5
2018-05-06T09:07:53.382Z,20.55
2018-05-06T09:08:53.058Z,20.55
2018-05-06T09:09:53.017Z,20.6
2018-05-06T09:10:53.006Z,20.6
2018-05-06T09:11:52.991Z,20.58
2018-05-06T09:12:53.011Z,20.61
2018-05-06T09:13:53.021Z,20.65
2018-05-06T09:14:53.052Z,20.7
2018-05-06T09:15:53.006Z,20.72
2018-05-06T09:16:53.704Z,20.7
2018-05-06T09:17:53.348Z,20.77
2018-05-06T09:18:53.125Z,20.75
2018-05-06T09:19:53.184Z,20.78
2018-05-06T09:20:53.078Z,20.84
2018-05-06T09:21:53.053Z,20.88
2018-05-06T09:22:53.041Z,20.94
2018-05-06T09:23:53.118Z,20.99
2018-05-06T09:24:53.024Z,21.02
2018-05-06T09:25:53.044Z,21.1
2018-05-06T09:26:54.468Z,21.13
2018-05-06T09:27:55.691Z,21.15
2018-05-06T09:28:52.993Z,21.09
2018-05-06T09:29:53.037Z,21.06
2018-05-06T09:30:53.047Z,21.01
2018-05-06T09:31:54.080Z,21.05
2018-05-06T09:32:52.999Z,21.12
2018-05-06T09:33:53.110Z,21.13
2018-05-06T09:34:53.100Z,21.13
2018-05-06T09:35:53.032Z,21.03
2018-05-06T09:36:53.020Z,21.12
2018-05-06T09:37:53.037Z,20.94
2018-05-06T09:38:53.021Z,20.88
2018-05-06T09:39:53.026Z,20.89
2018-05-06T09:40:53.044Z,20.99
2018-05-06T09:41:53.038Z,20.96
2018-05-06T09:42:53.028Z,21.05
2018-05-06T09:43:53.024Z,21.09
2018-05-06T09:44:53.046Z,21.23
2018-05-06T09:45:53.026Z,21.32
2018-05-06T09:46:53.140Z,21.32
2018-05-06T09:47:53.242Z,21.36
2018-05-06T09:48:53.029Z,21.33
2018-05-06T09:49:53.231Z,21.43
2018-05-06T09:50:53.017Z,21.46
2018-05-06T09:51:53.064Z,21.41
2018-05-06T09:52:53.037Z,21.41
2018-05-06T09:53:53.333Z,21.5
2018-05-06T09:54:53.228Z,21.57
2018-05-06T09:55:53.055Z,21.67
2018-05-06T09:56:53.019Z,21.78
2018-05-06T09:57:53.132Z,21.79
2018-05-06T09:58:53.058Z,21.91
2018-05-06T09:59:53.033Z,21.94
2018-05-06T10:00:53.014Z,21.95
2018-05-06T10:01:53.100Z,22.01
2018-05-06T10:02:53.028Z,22.08
2018-05-06T10:03:53.012Z,22.16
2018-05-06T10:04:53.079Z,22.22
2018-05-06T10:06:53.258Z,22.29
2018-05-06T10:07:53.085Z,22.29
2018-05-06T10:08:53.061Z,22.24
2018-05-06T10:09:53.052Z,22.17
2018-05-06T10:10:53.180Z,22.2
2018-05-06T10:11:53.167Z,22.08
2018-05-06T10:12:53.144Z,22.16
2018-05-06T10:13:53.052Z,22.12
2018-05-06T10:14:53.212Z,22.17
2018-05-06T10:15:53.307Z,22.2
2018-05-06T10:16:53.240Z,22.24
2018-05-06T10:17:53.125Z,22.33
2018-05-06T10:18:53.127Z,22.4
2018-05-06T10:19:53.185Z,22.46
2018-05-06T10:20:53.070Z,22.53
2018-05-06T10:21:53.212Z,22.6
2018-05-06T10:22:53.068Z,22.72
2018-05-06T10:23:53.085Z,22.68
2018-05-06T10:24:53.281Z,22.71
2018-05-06T10:25:53.039Z,22.74
2018-05-06T10:26:53.046Z,22.84
2018-05-06T10:27:53.200Z,22.85
2018-05-06T10:28:53.202Z,22.94
2018-05-06T10:29:56.078Z,22.98
2018-05-06T10:30:53.095Z,23.02
2018-05-06T10:31:53.245Z,23.09
2018-05-06T10:32:53.329Z,23.03
2018-05-06T10:33:53.054Z,22.91
2018-05-06T10:34:53.243Z,23.01
2018-05-06T10:35:53.101Z,23.06
2018-05-06T10:36:53.210Z,23.11
2018-05-06T10:37:53.056Z,23.15
2018-05-06T10:38:53.256Z,23.16
2018-05-06T10:39:53.293Z,23.18
2018-05-06T10:40:53.065Z,23.29
2018-05-06T10:41:53.289Z,23.26
2018-05-06T10:42:53.071Z,23.32
2018-05-06T10:43:53.140Z,23.39
2018-05-06T10:44:53.285Z,23.5
2018-05-06T10:45:53.271Z,23.5
2018-05-06T10:46:53.286Z,23.46
2018-05-06T10:47:53.228Z,23.48
2018-05-06T10:48:53.294Z,23.53
2018-05-06T10:49:53.183Z,23.54
2018-05-06T10:50:53.485Z,23.58
2018-05-06T10:51:53.154Z,23.6
2018-05-06T10:52:53.077Z,23.65
2018-05-06T10:53:53.074Z,23.67
2018-05-06T10:54:53.593Z,23.67
2018-05-06T10:55:53.275Z,23.65
2018-05-06T10:56:53.296Z,23.67
2018-05-06T10:57:53.542Z,23.65
2018-05-06T10:58:53.085Z,23.61
2018-05-06T10:59:53.071Z,23.6
2018-05-06T11:00:53.528Z,23.58
2018-05-06T11:01:53.088Z,23.65
2018-05-06T11:02:53.056Z,23.69
2018-05-06T11:03:53.144Z,23.74
2018-05-06T11:04:53.114Z,23.77
2018-05-06T11:05:53.070Z,23.75
2018-05-06T11:06:53.064Z,23.84
2018-05-06T11:07:53.079Z,23.89
2018-05-06T11:08:53.101Z,23.93
2018-05-06T11:09:53.085Z,23.99
2018-05-06T11:10:53.109Z,24.05
2018-05-06T11:11:53.109Z,24.06
2018-05-06T11:12:53.216Z,24.1
2018-05-06T11:13:53.103Z,24.15
2018-05-06T11:14:53.217Z,24.15
2018-05-06T11:15:53.084Z,24.17
2018-05-06T11:16:53.082Z,24.2
2018-05-06T11:17:53.915Z,24.32
2018-05-06T11:18:53.424Z,24.37
2018-05-06T11:19:53.163Z,24.4
2018-05-06T11:20:53.249Z,24.37
2018-05-06T11:21:53.105Z,24.43
2018-05-06T11:22:53.344Z,24.43
2018-05-06T11:23:53.276Z,24.46
2018-05-06T11:24:53.117Z,24.44
2018-05-06T11:25:53.122Z,24.46
2018-05-06T11:26:53.101Z,24.42
2018-05-06T11:27:53.096Z,24.42
2018-05-06T11:28:53.131Z,24.46
2018-05-06T11:29:53.077Z,24.5
2018-05-06T11:30:53.103Z,24.5
2018-05-06T11:31:53.217Z,24.46
2018-05-06T11:32:53.140Z,24.46
2018-05-06T11:33:53.081Z,24.47
2018-05-06T11:34:53.146Z,24.5
2018-05-06T11:35:53.099Z,24.53
2018-05-06T11:36:53.101Z,24.55
2018-05-06T11:37:53.104Z,24.57
2018-05-06T11:38:53.101Z,24.6
2018-05-06T11:39:53.107Z,24.61
2018-05-06T11:40:53.235Z,24.63
2018-05-06T11:41:53.131Z,24.58
2018-05-06T11:42:53.148Z,24.65
2018-05-06T11:43:53.112Z,24.71
2018-05-06T11:44:53.119Z,24.68
2018-05-06T11:45:53.134Z,24.74
2018-05-06T11:46:53.169Z,24.77
2018-05-06T11:47:53.110Z,24.77
2018-05-06T11:48:53.108Z,24.81
2018-05-06T11:49:53.123Z,24.85
2018-05-06T11:50:53.116Z,24.82
2018-05-06T11:51:53.147Z,24.82
2018-05-06T11:52:53.147Z,24.83
2018-05-06T11:53:53.165Z,24.88
2018-05-06T11:54:53.236Z,24.88
2018-05-06T11:55:53.394Z,24.94
2018-05-06T11:56:53.124Z,24.99
2018-05-06T11:57:53.118Z,25.02
2018-05-06T11:58:53.100Z,24.92
2018-05-06T11:59:53.161Z,24.95
2018-05-06T12:00:53.110Z,24.97
2018-05-06T12:01:53.128Z,24.99
2018-05-06T12:02:53.145Z,25.01
2018-05-06T12:03:53.129Z,25.02
2018-05-06T12:04:53.141Z,25.01
2018-05-06T12:05:53.150Z,24.97
2018-05-06T12:06:53.132Z,24.95
2018-05-06T12:07:53.117Z,25.01
2018-05-06T12:08:53.139Z,25.05
2018-05-06T12:09:53.285Z,25.1
2018-05-06T12:10:53.136Z,25.13
2018-05-06T12:11:53.180Z,25.09
2018-05-06T12:12:53.116Z,25.06
2018-05-06T12:13:53.283Z,25.13
2018-05-06T12:14:53.129Z,25.12
2018-05-06T12:15:53.385Z,25.1
2018-05-06T12:16:53.131Z,25.17
2018-05-06T12:17:53.153Z,25.17
2018-05-06T12:18:53.143Z,25.2
2018-05-06T12:19:53.143Z,25.22
2018-05-06T12:20:53.159Z,25.27
2018-05-06T12:21:53.260Z,25.29
2018-05-06T12:22:53.263Z,25.32
2018-05-06T12:23:53.436Z,25.36
2018-05-06T12:24:53.139Z,25.41
2018-05-06T12:25:53.116Z,25.46
2018-05-06T12:26:53.138Z,25.44
2018-05-06T12:27:53.166Z,25.44
2018-05-06T12:28:53.131Z,25.46
2018-05-06T12:29:53.132Z,25.47
2018-05-06T12:30:53.153Z,25.5
2018-05-06T12:31:53.205Z,25.58
2018-05-06T12:32:53.133Z,25.63
2018-05-06T12:33:53.139Z,25.64
2018-05-06T12:34:53.172Z,25.67
2018-05-06T12:35:53.135Z,25.56
2018-05-06T12:36:53.161Z,25.63
2018-05-06T12:37:53.146Z,25.65
2018-05-06T12:38:53.135Z,25.65
2018-05-06T12:39:53.139Z,25.77
2018-05-06T12:40:53.114Z,25.75
2018-05-06T12:41:53.161Z,25.74
2018-05-06T12:42:53.145Z,25.81
2018-05-06T12:43:53.137Z,25.82
2018-05-06T12:44:53.130Z,25.82
2018-05-06T12:45:53.116Z,25.89
2018-05-06T12:46:53.329Z,25.74
2018-05-06T12:47:53.326Z,25.77
2018-05-06T12:48:53.169Z,25.71
2018-05-06T12:49:53.174Z,25.75
2018-05-06T12:50:53.355Z,25.82
2018-05-06T12:51:53.360Z,25.84
2018-05-06T12:52:53.360Z,25.89
2018-05-06T12:53:53.397Z,25.91
2018-05-06T12:54:53.529Z,25.96
2018-05-06T12:55:53.207Z,25.93
2018-05-06T12:56:53.330Z,25.88